createdAt,value
2019-02-11T00:01:37.233Z,12.95
2019-02-11T00:04:06.937Z,13.48
2019-02-11T00:06:36.741Z,13.18
2019-02-11T00:09:09.440Z,14.05
2019-02-11T00:11:39.176Z,14.00
2019-02-11T00:14:08.874Z,13.78
2019-02-11T00:16:38.575Z,13.43
2019-02-11T00:19:08.266Z,12.98
2019-02-11T00:21:37.977Z,12.82
2019-02-11T00:24:07.707Z,13.32
2019-02-11T00:26:37.499Z,13.32
2019-02-11T00:29:07.190Z,11.93
2019-02-11T00:31:36.842Z,12.95
2019-02-11T00:34:06.579Z,13.45
2019-02-11T00:36:36.170Z,13.62
2019-02-11T00:39:07.225Z,13.65
2019-02-11T00:41:37.008Z,13.48
2019-02-11T00:44:06.747Z,13.10
2019-02-11T00:46:36.578Z,13.45
2019-02-11T00:49:06.259Z,13.62
2019-02-11T00:51:35.941Z,13.20
2019-02-11T00:54:05.576Z,12.93
2019-02-11T00:56:35.287Z,12.95
2019-02-11T00:59:04.891Z,13.03
2019-02-11T01:01:34.688Z,13.10
2019-02-11T01:04:04.307Z,13.18
2019-02-11T01:06:34.063Z,12.90
2019-02-11T01:09:05.502Z,13.22
2019-02-11T01:11:35.166Z,12.98
2019-02-11T01:14:04.980Z,13.30
2019-02-11T01:16:34.695Z,12.82
2019-02-11T01:19:04.520Z,13.00
2019-02-11T01:21:34.212Z,13.08
2019-02-11T01:24:03.929Z,13.30
2019-02-11T01:26:33.561Z,12.25
2019-02-11T01:29:03.361Z,12.75
2019-02-11T01:31:32.974Z,12.90
2019-02-11T01:34:02.689Z,12.73
2019-02-11T01:36:32.292Z,12.60
2019-02-11T01:39:01.989Z,12.95
2019-02-11T01:41:31.625Z,12.82
2019-02-11T01:44:01.297Z,13.03
2019-02-11T01:46:31.022Z,12.95
2019-02-11T01:49:00.653Z,13.03
2019-02-11T01:51:30.437Z,12.73
2019-02-11T01:54:00.067Z,12.50
2019-02-11T01:56:29.790Z,11.85
2019-02-11T01:58:59.396Z,13.03
2019-02-11T02:01:29.080Z,13.35
2019-02-11T02:03:58.789Z,12.93
2019-02-11T02:06:28.411Z,12.28
2019-02-11T02:08:58.106Z,12.90
2019-02-11T02:11:27.726Z,12.25
2019-02-11T02:13:57.428Z,12.68
2019-02-11T02:16:27.052Z,12.80
2019-02-11T02:18:56.664Z,12.43
2019-02-11T02:21:26.341Z,11.73
2019-02-11T02:23:56.064Z,12.13
2019-02-11T02:26:25.872Z,12.07
2019-02-11T02:28:55.511Z,12.13
2019-02-11T02:31:25.189Z,12.78
2019-02-11T02:33:54.944Z,12.85
2019-02-11T02:36:24.625Z,12.53
2019-02-11T02:38:54.260Z,12.98
2019-02-11T02:41:23.939Z,12.68
2019-02-11T02:43:55.477Z,12.40
2019-02-11T02:46:25.095Z,12.10
2019-02-11T02:48:54.816Z,12.18
2019-02-11T02:51:24.513Z,12.35
2019-02-11T02:53:54.252Z,13.00
2019-02-11T02:56:23.882Z,12.70
2019-02-11T02:58:53.615Z,12.10
2019-02-11T03:01:23.276Z,12.00
2019-02-11T03:03:52.959Z,12.05
2019-02-11T03:06:22.616Z,12.40
2019-02-11T03:08:52.299Z,11.88
2019-02-11T03:11:22.028Z,12.90
2019-02-11T03:13:51.719Z,12.60
2019-02-11T03:16:21.451Z,12.60
2019-02-11T03:18:51.259Z,12.18
2019-02-11T03:21:20.849Z,13.08
2019-02-11T03:23:50.473Z,12.53
2019-02-11T03:26:20.230Z,12.33
2019-02-11T03:28:49.896Z,12.58
2019-02-11T03:31:19.581Z,13.05
2019-02-11T03:33:49.231Z,12.37
2019-02-11T03:36:18.908Z,12.60
2019-02-11T03:38:48.538Z,12.82
2019-02-11T03:41:18.237Z,12.63
2019-02-11T03:43:47.946Z,11.88
2019-02-11T03:46:17.595Z,12.10
2019-02-11T03:48:47.257Z,12.28
2019-02-11T03:51:17.055Z,12.10
2019-02-11T03:53:46.775Z,11.65
2019-02-11T03:56:16.437Z,12.20
2019-02-11T03:58:46.191Z,11.48
2019-02-11T04:01:15.837Z,12.43
2019-02-11T04:03:45.538Z,11.83
2019-02-11T04:06:15.236Z,12.68
2019-02-11T04:08:45.030Z,12.15
2019-02-11T04:11:14.769Z,12.00
2019-02-11T04:13:44.405Z,12.20
2019-02-11T04:16:14.077Z,11.75
2019-02-11T04:18:43.704Z,11.80
2019-02-11T04:21:13.510Z,12.80
2019-02-11T04:23:43.036Z,12.80
2019-02-11T04:26:12.772Z,12.25
2019-02-11T04:28:42.466Z,12.05
2019-02-11T04:31:12.233Z,11.63
2019-02-11T04:33:41.966Z,12.28
2019-02-11T04:36:11.655Z,12.18
2019-02-11T04:38:41.410Z,12.23
2019-02-11T04:41:11.115Z,11.95
2019-02-11T04:43:40.795Z,12.25
2019-02-11T04:46:10.431Z,12.40
2019-02-11T04:48:40.208Z,11.20
2019-02-11T04:51:09.871Z,12.07
2019-02-11T04:53:39.531Z,12.60
2019-02-11T04:56:09.430Z,12.55
2019-02-11T04:58:39.100Z,12.25
2019-02-11T05:01:08.800Z,12.20
2019-02-11T05:03:38.587Z,11.53
2019-02-11T05:06:08.198Z,11.95
2019-02-11T05:08:38.012Z,11.35
2019-02-11T05:11:09.017Z,12.07
2019-02-11T05:13:38.669Z,12.18
2019-02-11T05:16:08.938Z,11.63
2019-02-11T05:18:38.621Z,12.13
2019-02-11T05:21:08.352Z,11.95
2019-02-11T05:23:38.158Z,11.75
2019-02-11T05:26:07.829Z,11.68
2019-02-11T05:28:37.512Z,12.15
2019-02-11T05:31:07.241Z,11.85
2019-02-11T05:33:36.983Z,11.03
2019-02-11T05:36:06.677Z,11.83
2019-02-11T05:38:36.376Z,12.47
2019-02-11T05:41:06.113Z,11.65
2019-02-11T05:43:35.905Z,11.48
2019-02-11T05:46:05.626Z,11.38
2019-02-11T05:48:35.324Z,11.70
2019-02-11T05:51:04.966Z,11.50
2019-02-11T05:53:34.639Z,11.88
2019-02-11T05:56:04.293Z,11.60
2019-02-11T05:58:34.005Z,12.95
2019-02-11T06:01:03.605Z,12.15
2019-02-11T06:03:33.475Z,11.70
2019-02-11T06:06:03.138Z,12.28
2019-02-11T06:08:33.006Z,12.00
2019-02-11T06:11:06.351Z,11.93
2019-02-11T06:13:36.700Z,12.00
2019-02-11T06:16:07.264Z,11.63
2019-02-11T06:18:40.030Z,11.68
2019-02-11T06:21:09.759Z,12.03
2019-02-11T06:23:39.515Z,12.95
2019-02-11T06:26:09.500Z,12.88
2019-02-11T06:28:39.414Z,14.87
2019-02-11T06:31:09.246Z,14.10
2019-02-11T06:33:39.201Z,15.18
2019-02-11T06:36:12.406Z,15.90
2019-02-11T06:38:40.414Z,15.93
2019-02-11T06:41:10.281Z,16.87
2019-02-11T06:43:40.045Z,17.55
2019-02-11T06:46:09.933Z,17.42
2019-02-11T06:48:39.695Z,18.82
2019-02-11T06:51:09.340Z,19.87
2019-02-11T06:53:39.018Z,19.85
2019-02-11T06:56:08.656Z,21.90
2019-02-11T06:58:38.445Z,23.20
2019-02-11T07:01:08.080Z,24.52
2019-02-11T07:03:37.755Z,26.05
2019-02-11T07:06:07.386Z,26.52
2019-02-11T07:08:37.129Z,30.45
2019-02-11T07:11:06.925Z,28.32
2019-02-11T07:13:36.695Z,29.77
2019-02-11T07:16:06.428Z,32.23
2019-02-11T07:18:37.219Z,33.88
2019-02-11T07:21:07.059Z,34.90
2019-02-11T07:23:36.740Z,36.08
2019-02-11T07:26:06.486Z,38.85
2019-02-11T07:28:36.130Z,42.48
2019-02-11T07:31:05.833Z,41.28
2019-02-11T07:33:35.652Z,43.70
2019-02-11T07:36:05.476Z,43.00
2019-02-11T07:38:35.065Z,46.37
2019-02-11T07:41:04.791Z,44.50
2019-02-11T07:43:42.386Z,47.85
2019-02-11T07:46:33.502Z,48.45
2019-02-11T07:49:03.164Z,49.60
2019-02-11T07:51:32.964Z,51.95
2019-02-11T07:54:02.694Z,50.78
2019-02-11T07:56:32.496Z,53.45
2019-02-11T07:59:02.354Z,52.73
2019-02-11T08:01:31.961Z,52.25
2019-02-11T08:04:01.886Z,52.27
2019-02-11T08:06:31.478Z,52.30
2019-02-11T08:09:01.360Z,52.98
2019-02-11T08:11:30.999Z,52.33
2019-02-11T08:14:00.693Z,53.50
2019-02-11T08:16:30.324Z,51.65
2019-02-11T08:19:00.854Z,51.48
2019-02-11T08:21:30.686Z,50.95
2019-02-11T08:24:00.359Z,48.48
2019-02-11T08:26:29.984Z,49.50
2019-02-11T08:28:59.676Z,50.03
2019-02-11T08:31:29.410Z,50.03
2019-02-11T08:33:59.166Z,47.85
2019-02-11T08:36:28.957Z,46.92
2019-02-11T08:38:58.809Z,48.92
2019-02-11T08:41:28.488Z,48.38
2019-02-11T08:43:58.455Z,45.38
2019-02-11T08:46:28.105Z,45.85
2019-02-11T08:48:57.865Z,44.55
2019-02-11T08:51:27.709Z,46.88
2019-02-11T08:53:57.400Z,45.08
2019-02-11T08:56:27.135Z,44.53
2019-02-11T08:58:56.823Z,43.55
2019-02-11T09:01:26.553Z,45.05
2019-02-11T09:03:56.245Z,43.28
2019-02-11T09:06:25.963Z,42.78
2019-02-11T09:08:55.755Z,41.68
2019-02-11T09:11:25.606Z,41.48
2019-02-11T09:13:55.280Z,41.65
2019-02-11T09:16:25.077Z,41.95
2019-02-11T09:18:54.813Z,40.17
2019-02-11T09:21:24.526Z,40.90
2019-02-11T09:23:54.150Z,39.85
2019-02-11T09:26:23.841Z,40.03
2019-02-11T09:28:53.479Z,41.23
2019-02-11T09:31:23.168Z,42.62
2019-02-11T09:33:52.865Z,43.13
2019-02-11T09:36:22.723Z,43.23
2019-02-11T09:38:52.418Z,41.90
2019-02-11T09:41:22.107Z,42.05
2019-02-11T09:43:51.940Z,41.10
2019-02-11T09:46:21.811Z,41.02
2019-02-11T09:48:51.476Z,42.85
2019-02-11T09:51:21.894Z,42.43
2019-02-11T09:53:51.647Z,41.58
2019-02-11T09:56:21.484Z,40.92
2019-02-11T09:58:51.317Z,41.08
2019-02-11T10:01:21.140Z,42.65
2019-02-11T10:03:50.837Z,42.43
2019-02-11T10:06:20.469Z,40.38
2019-02-11T10:08:50.146Z,40.70
2019-02-11T10:11:19.909Z,40.98
2019-02-11T10:13:49.613Z,39.95
2019-02-11T10:16:19.425Z,39.92
2019-02-11T10:18:49.010Z,41.02
2019-02-11T10:21:18.714Z,39.25
2019-02-11T10:23:48.363Z,38.75
2019-02-11T10:26:18.032Z,38.78
2019-02-11T10:28:47.659Z,39.10
2019-02-11T10:31:17.548Z,39.63
2019-02-11T10:33:47.262Z,38.80
2019-02-11T10:36:17.019Z,37.20
2019-02-11T10:38:46.702Z,36.93
2019-02-11T10:41:16.424Z,37.50
2019-02-11T10:43:45.943Z,37.58
2019-02-11T10:46:20.952Z,37.38
2019-02-11T10:48:47.111Z,36.83
2019-02-11T10:51:16.890Z,37.60
2019-02-11T10:53:46.488Z,38.48
2019-02-11T10:56:16.147Z,36.95
2019-02-11T10:58:45.763Z,38.00
2019-02-11T11:01:15.485Z,36.73
2019-02-11T11:03:45.228Z,35.83
2019-02-11T11:06:14.960Z,35.48
2019-02-11T11:08:44.669Z,36.08
2019-02-11T11:11:14.402Z,36.23
2019-02-11T11:13:44.065Z,36.42
2019-02-11T11:16:13.875Z,36.48
2019-02-11T11:18:43.700Z,36.77
2019-02-11T11:21:12.410Z,35.50
2019-02-11T11:23:40.944Z,35.28
2019-02-11T11:26:10.671Z,37.10
2019-02-11T11:28:40.398Z,36.80
2019-02-11T11:31:10.105Z,37.13
2019-02-11T11:33:39.821Z,36.88
2019-02-11T11:36:09.451Z,36.40
2019-02-11T11:38:39.152Z,37.30
2019-02-11T11:41:08.765Z,36.85
2019-02-11T11:43:38.447Z,37.33
2019-02-11T11:46:08.202Z,36.00
2019-02-11T11:48:37.888Z,36.98
2019-02-11T11:51:07.586Z,36.42
2019-02-11T11:53:37.288Z,36.28
2019-02-11T11:56:07.122Z,36.48
2019-02-11T11:58:36.824Z,35.23
2019-02-11T12:01:06.731Z,35.60
2019-02-11T12:03:36.456Z,35.92
2019-02-11T12:06:05.051Z,35.55
2019-02-11T12:08:34.876Z,35.60
2019-02-11T12:11:03.364Z,35.25
2019-02-11T12:13:34.006Z,35.78
2019-02-11T12:16:04.047Z,35.60
2019-02-11T12:18:33.900Z,34.08
2019-02-11T12:21:03.582Z,34.98
2019-02-11T12:23:33.404Z,34.73
2019-02-11T12:26:03.274Z,33.33
2019-02-11T12:28:33.549Z,33.63
2019-02-11T12:31:03.441Z,34.63
2019-02-11T12:33:33.091Z,33.78
2019-02-11T12:36:02.787Z,33.45
2019-02-11T12:38:32.520Z,33.25
2019-02-11T12:41:02.170Z,32.53
2019-02-11T12:43:31.934Z,32.45
2019-02-11T12:46:01.585Z,32.45
2019-02-11T12:48:31.459Z,31.65
2019-02-11T12:51:01.085Z,31.52
2019-02-11T12:53:30.808Z,31.60
2019-02-11T12:56:02.732Z,32.35
2019-02-11T12:58:32.046Z,31.37
2019-02-11T13:01:01.715Z,31.77
2019-02-11T13:03:31.549Z,31.27
2019-02-11T13:06:01.366Z,31.10
2019-02-11T13:08:31.232Z,30.37
2019-02-11T13:11:01.018Z,29.48
2019-02-11T13:13:32.099Z,29.87
2019-02-11T13:16:03.167Z,29.02
2019-02-11T13:18:35.395Z,30.60
2019-02-11T13:21:04.779Z,30.48
2019-02-11T13:23:34.597Z,29.67
2019-02-11T13:26:04.225Z,30.30
2019-02-11T13:28:33.991Z,28.92
2019-02-11T13:31:03.643Z,28.20
2019-02-11T13:33:33.320Z,28.55
2019-02-11T13:36:02.956Z,29.18
2019-02-11T13:38:32.708Z,28.67
2019-02-11T13:41:02.457Z,28.05
2019-02-11T13:43:32.160Z,27.70
2019-02-11T13:46:02.042Z,27.27
2019-02-11T13:48:34.155Z,27.62
2019-02-11T13:51:03.610Z,27.42
2019-02-11T13:53:33.376Z,27.82
2019-02-11T13:56:05.417Z,25.00
2019-02-11T13:58:35.167Z,26.45
2019-02-11T14:01:05.166Z,27.15
2019-02-11T14:03:34.916Z,25.27
2019-02-11T14:06:04.702Z,25.48
2019-02-11T14:08:34.311Z,25.40
2019-02-11T14:11:04.042Z,24.72
2019-02-11T14:13:33.772Z,24.92
2019-02-11T14:16:03.614Z,23.83
2019-02-11T14:18:33.385Z,23.00
2019-02-11T14:21:03.321Z,23.12
2019-02-11T14:23:33.005Z,23.15
2019-02-11T14:26:02.771Z,26.07
2019-02-11T14:28:32.541Z,29.45
2019-02-11T14:31:02.322Z,32.13
2019-02-11T14:33:32.014Z,36.10
2019-02-11T14:36:05.157Z,37.28
2019-02-11T14:38:33.178Z,40.15
2019-02-11T14:41:02.792Z,42.35
2019-02-11T14:43:32.499Z,44.30
2019-02-11T14:46:02.179Z,48.87
2019-02-11T14:48:31.909Z,48.75
2019-02-11T14:51:01.553Z,51.55
2019-02-11T14:53:31.220Z,52.00
2019-02-11T14:56:00.666Z,54.40
2019-02-11T14:58:30.368Z,56.13
2019-02-11T15:01:00.238Z,57.62
2019-02-11T15:03:29.900Z,62.20
2019-02-11T15:05:59.787Z,60.92
2019-02-11T15:08:29.520Z,61.75
2019-02-11T15:10:59.203Z,59.53
2019-02-11T15:13:28.970Z,61.00
2019-02-11T15:15:58.836Z,59.93
2019-02-11T15:18:34.091Z,59.00
2019-02-11T15:21:00.306Z,58.45
2019-02-11T15:23:30.043Z,60.43
2019-02-11T15:25:59.838Z,58.40
2019-02-11T15:28:29.664Z,57.10
2019-02-11T15:30:59.546Z,56.70
2019-02-11T15:33:29.181Z,55.78
2019-02-11T15:35:59.088Z,54.98
2019-02-11T15:38:28.809Z,54.00
2019-02-11T15:40:58.638Z,53.87
2019-02-11T15:43:28.230Z,55.30
2019-02-11T15:45:57.967Z,52.50
2019-02-11T15:48:27.557Z,53.90
2019-02-11T15:50:57.233Z,54.45
2019-02-11T15:53:26.971Z,53.38
2019-02-11T15:55:56.755Z,53.30
2019-02-11T15:58:26.442Z,50.50
2019-02-11T16:00:56.149Z,52.20
2019-02-11T16:03:25.967Z,51.45
2019-02-11T16:05:55.694Z,50.55
2019-02-11T16:08:25.409Z,49.13
2019-02-11T16:11:01.192Z,49.35
2019-02-11T16:13:26.655Z,49.63
2019-02-11T16:15:56.413Z,48.28
2019-02-11T16:18:26.103Z,48.95
2019-02-11T16:20:55.734Z,48.95
2019-02-11T16:23:25.419Z,48.35
2019-02-11T16:25:55.059Z,47.27
2019-02-11T16:28:24.853Z,48.20
2019-02-11T16:30:54.477Z,46.85
2019-02-11T16:33:24.168Z,47.65
2019-02-11T16:35:53.917Z,46.20
2019-02-11T16:38:23.518Z,49.90
2019-02-11T16:40:53.303Z,53.55
2019-02-11T16:43:22.916Z,52.88
2019-02-11T16:45:52.620Z,55.67
2019-02-11T16:48:22.330Z,54.70
2019-02-11T16:50:52.216Z,55.80
2019-02-11T16:53:21.782Z,56.28
2019-02-11T16:55:51.621Z,57.25
2019-02-11T16:58:21.202Z,56.65
2019-02-11T17:00:50.657Z,57.90
2019-02-11T17:03:20.495Z,57.48
2019-02-11T17:05:50.086Z,56.80
2019-02-11T17:08:19.820Z,57.88
2019-02-11T17:10:49.438Z,56.13
2019-02-11T17:13:19.137Z,57.13
2019-02-11T17:15:48.860Z,56.55
2019-02-11T17:18:18.544Z,57.08
2019-02-11T17:20:48.271Z,57.08
2019-02-11T17:23:17.988Z,55.33
2019-02-11T17:25:47.435Z,56.45
2019-02-11T17:28:17.185Z,56.15
2019-02-11T17:30:45.713Z,55.80
2019-02-11T17:33:15.312Z,56.77
2019-02-11T17:35:44.994Z,53.23
2019-02-11T17:38:14.730Z,54.83
2019-02-11T17:40:44.381Z,53.42
2019-02-11T17:43:14.230Z,55.28
2019-02-11T17:45:44.064Z,52.33
2019-02-11T17:48:13.818Z,53.45
2019-02-11T17:50:43.585Z,53.75
2019-02-11T17:53:14.010Z,53.28
2019-02-11T17:55:43.693Z,53.63
2019-02-11T17:58:13.344Z,52.78
2019-02-11T18:00:48.838Z,51.90
2019-02-11T18:03:18.581Z,53.98
2019-02-11T18:05:48.207Z,53.08
2019-02-11T18:08:17.891Z,50.48
2019-02-11T18:10:47.857Z,52.23
2019-02-11T18:13:17.563Z,52.75
2019-02-11T18:15:47.259Z,53.35
2019-02-11T18:18:16.952Z,52.43
2019-02-11T18:20:46.962Z,51.25
2019-02-11T18:23:16.686Z,49.55
2019-02-11T18:25:46.290Z,51.05
2019-02-11T18:28:16.199Z,50.15
2019-02-11T18:30:45.920Z,49.25
2019-02-11T18:33:15.620Z,49.23
2019-02-11T18:35:45.427Z,49.93
2019-02-11T18:38:15.235Z,47.60
2019-02-11T18:40:44.951Z,48.87
2019-02-11T18:43:14.708Z,49.25
2019-02-11T18:45:44.492Z,48.15
2019-02-11T18:48:14.130Z,48.65
2019-02-11T18:50:44.035Z,47.48
2019-02-11T18:53:13.884Z,48.52
2019-02-11T18:55:43.729Z,46.63
2019-02-11T18:58:13.618Z,46.10
2019-02-11T19:00:43.362Z,46.05
2019-02-11T19:03:12.916Z,47.35
2019-02-11T19:05:42.923Z,45.83
2019-02-11T19:08:12.865Z,45.05
2019-02-11T19:10:41.243Z,44.60
2019-02-11T19:13:11.081Z,45.12
2019-02-11T19:15:40.921Z,46.20
2019-02-11T19:18:10.891Z,44.42
2019-02-11T19:20:40.574Z,42.75
2019-02-11T19:23:10.191Z,44.23
2019-02-11T19:25:39.954Z,43.78
2019-02-11T19:28:09.694Z,43.40
2019-02-11T19:30:39.515Z,44.20
2019-02-11T19:33:09.191Z,42.53
2019-02-11T19:35:38.926Z,42.53
2019-02-11T19:38:08.747Z,42.03
2019-02-11T19:40:38.411Z,41.80
2019-02-11T19:43:08.105Z,40.23
2019-02-11T19:45:37.844Z,40.80
2019-02-11T19:48:07.485Z,42.10
2019-02-11T19:50:37.199Z,40.85
2019-02-11T19:53:06.995Z,39.90
2019-02-11T19:55:36.608Z,39.98
2019-02-11T19:58:06.449Z,39.20
2019-02-11T20:00:36.351Z,38.50
2019-02-11T20:03:06.043Z,39.60
2019-02-11T20:05:35.831Z,37.33
2019-02-11T20:08:05.551Z,39.03
2019-02-11T20:10:35.286Z,38.80
2019-02-11T20:13:04.896Z,37.25
2019-02-11T20:15:34.751Z,35.85
2019-02-11T20:18:04.421Z,35.88
2019-02-11T20:20:34.106Z,36.00
2019-02-11T20:23:03.737Z,35.15
2019-02-11T20:25:33.420Z,34.73
2019-02-11T20:28:03.173Z,34.58
2019-02-11T20:30:32.764Z,33.73
2019-02-11T20:33:04.459Z,35.17
2019-02-11T20:35:33.938Z,34.43
2019-02-11T20:38:03.618Z,34.48
2019-02-11T20:40:33.288Z,34.38
2019-02-11T20:43:02.925Z,33.40
2019-02-11T20:45:32.565Z,34.40
2019-02-11T20:48:02.246Z,33.50
2019-02-11T20:50:32.303Z,32.73
2019-02-11T20:53:01.984Z,32.75
2019-02-11T20:55:31.624Z,31.97
2019-02-11T20:58:01.397Z,31.57
2019-02-11T21:00:31.140Z,32.00
2019-02-11T21:03:08.198Z,31.90
2019-02-11T21:05:32.269Z,32.00
2019-02-11T21:08:01.981Z,31.30
2019-02-11T21:10:31.709Z,31.85
2019-02-11T21:13:01.579Z,31.17
2019-02-11T21:15:31.243Z,29.92
2019-02-11T21:18:00.862Z,30.30
2019-02-11T21:20:33.274Z,29.27
2019-02-11T21:23:03.018Z,29.12
2019-02-11T21:25:32.698Z,30.00
2019-02-11T21:28:02.437Z,28.87
2019-02-11T21:30:32.140Z,29.25
2019-02-11T21:33:01.856Z,28.70
2019-02-11T21:35:31.494Z,28.95
2019-02-11T21:38:01.186Z,28.35
2019-02-11T21:40:30.998Z,28.83
2019-02-11T21:43:00.708Z,28.52
2019-02-11T21:45:30.337Z,28.07
2019-02-11T21:48:00.191Z,27.58
2019-02-11T21:50:29.957Z,27.35
2019-02-11T21:52:59.669Z,27.50
2019-02-11T21:55:29.354Z,27.62
2019-02-11T21:57:59.048Z,27.15
2019-02-11T22:00:28.816Z,25.57
2019-02-11T22:02:58.521Z,26.27
2019-02-11T22:05:28.207Z,26.30
2019-02-11T22:07:57.834Z,26.75
2019-02-11T22:10:27.531Z,25.30
2019-02-11T22:12:57.258Z,25.35
2019-02-11T22:15:27.020Z,25.20
2019-02-11T22:17:56.785Z,24.67
2019-02-11T22:20:34.358Z,24.82
2019-02-11T22:22:57.919Z,25.12
2019-02-11T22:25:27.664Z,25.20
2019-02-11T22:27:57.440Z,24.18
2019-02-11T22:30:27.165Z,23.92
2019-02-11T22:32:56.878Z,24.05
2019-02-11T22:35:26.509Z,22.62
2019-02-11T22:37:56.192Z,22.77
2019-02-11T22:40:25.825Z,22.37
2019-02-11T22:42:55.512Z,21.93
2019-02-11T22:45:25.224Z,22.00
2019-02-11T22:47:54.845Z,21.05
2019-02-11T22:50:24.540Z,21.80
2019-02-11T22:52:54.173Z,21.12
2019-02-11T22:55:23.953Z,20.32
2019-02-11T22:57:53.741Z,20.82
2019-02-11T23:00:44.487Z,20.40
2019-02-11T23:03:14.531Z,19.90
2019-02-11T23:05:44.300Z,20.70
2019-02-11T23:08:14.065Z,21.27
2019-02-11T23:10:43.722Z,19.95
2019-02-11T23:13:13.550Z,19.25
2019-02-11T23:15:43.360Z,19.50
2019-02-11T23:18:13.068Z,19.00
2019-02-11T23:20:42.884Z,18.82
2019-02-11T23:23:12.607Z,19.40
2019-02-11T23:25:42.303Z,18.57
2019-02-11T23:28:12.021Z,18.60
2019-02-11T23:30:41.738Z,17.95
2019-02-11T23:33:11.444Z,18.10
2019-02-11T23:35:41.070Z,18.07
2019-02-11T23:38:10.859Z,18.10
2019-02-11T23:40:40.480Z,17.10
2019-02-11T23:43:10.081Z,17.45
2019-02-11T23:45:39.808Z,17.75
2019-02-11T23:48:09.547Z,16.67
2019-02-11T23:50:39.203Z,16.80
2019-02-11T23:53:08.949Z,16.52
2019-02-11T23:55:38.632Z,15.85
2019-02-11T23:58:08.365Z,16.45
